Parc Terranova, Puerto Rico
Current Conditions -  °F | °C
As of 9:50 PM on Thursday 18 Dec 2014 (Local Time) from TJBQ Reporting Station
Overcast Overcast  
Wind Chill: 73°   Ceiling: 3200
Heat Index: 73°   Visibility: 10mi
Dew Point: 68°   Wind: 6mph
Humidity: 83%   Direction: 100°E
Pressure: 30.04"   Gusts: NA
Location:  18.4738°N, 66.9364°W
Report Text: TJBQ 190150Z 10005KT 10SM BKN032 BKN046 OVC090 23/20 A3004 RMK RWY08 ATIS F
Loading
Personal Weather Stations






























Interactive Weather Map New forecast layout! Learn more

10-Day Weather Forecast

Advertisements
Track Severe Weather on mobile